Time;durP1;ratioP1;P1;durP2;ratioP2;P2;SDS_P1;SDS_P2;PMS_P1;PMS_P2;Temp;Humidity;BMP_temperature;BMP_pressure;BME280_temperature;BME280_humidity;BME280_pressure;Samples;Min_cycle;Max_cycle;Signal;HPM_P1;HPM_P2
2023/06/07 00:00:39;;;;;;;;;;;;;;;29.97;30.03;94184.66;5041811;28;8936;-57
2023/06/07 00:03:14;;;;;;;;;;;;;;;29.95;30.96;94193.53;5044892;28;7287;-57
2023/06/07 00:05:53;;;;;;;;;;;;;;;29.93;30.89;94189.81;5033335;28;8983;-57
2023/06/07 00:08:28;;;;;;;;;;;;;;;29.94;30.74;94182.97;5055374;28;6856;-57
2023/06/07 00:10:56;;;;;;;;;;;;;;;29.95;30.69;94187.25;5033037;28;7044;-57
2023/06/07 00:13:31;;;;;;;;;;;;;;;29.94;30.74;94180.97;5030344;28;8053;-56
2023/06/07 00:16:04;;;;;;;;;;;;;;;29.94;29.92;94182.97;5047871;28;7699;-57
2023/06/07 00:18:35;;;;;;;;;;;;;;;29.93;30.25;94176.69;5028165;28;7234;-56
2023/06/07 00:21:30;;;;;;;;;;;;;;;29.92;30.23;94182.78;5059564;28;7262;-56
2023/06/07 00:23:59;;;;;;;;;;;;;;;29.91;29.92;94187.56;5033505;28;9560;-57
2023/06/07 00:26:25;;;;;;;;;;;;;;;29.91;30.72;94187.56;5023855;28;7274;-57
2023/06/07 00:29:11;;;;;;;;;;;;;;;29.91;30.69;94181.28;5042303;28;7056;-56
2023/06/07 00:31:44;;;;;;;;;;;;;;;29.88;30.27;94180.38;5034770;28;7499;-56
2023/06/07 00:34:11;;;;;;;;;;;;;;;29.87;30.24;94187.19;5040932;28;7439;-56
2023/06/07 00:36:37;;;;;;;;;;;;;;;29.88;30.25;94177.59;5048877;28;7163;-57
2023/06/07 00:39:07;;;;;;;;;;;;;;;29.88;30.50;94182.38;5040812;28;7457;-56
2023/06/07 00:41:41;;;;;;;;;;;;;;;29.84;30.14;94182.72;5042257;28;7409;-56
2023/06/07 00:44:12;;;;;;;;;;;;;;;29.87;31.19;94187.19;5033695;28;7296;-56
2023/06/07 00:46:42;;;;;;;;;;;;;;;29.86;30.58;94188.50;5043116;28;8959;-56
2023/06/07 00:49:40;;;;;;;;;;;;;;;29.86;30.39;94190.50;5045564;28;7838;-56
2023/06/07 00:52:16;;;;;;;;;;;;;;;29.84;31.02;94193.81;5047587;28;7037;-57
2023/06/07 00:55:33;;;;;;;;;;;;;;;29.86;30.48;94191.25;5031916;28;7046;-56
2023/06/07 00:58:01;;;;;;;;;;;;;;;29.86;31.30;94188.50;5043155;28;7151;-57
2023/06/07 01:00:29;;;;;;;;;;;;;;;29.85;30.29;94180.69;5031217;28;7182;-56
2023/06/07 01:02:56;;;;;;;;;;;;;;;29.81;30.56;94189.38;5024715;28;9135;-56
2023/06/07 01:05:23;;;;;;;;;;;;;;;29.83;30.48;94186.03;5042116;28;9141;-56
2023/06/07 01:08:11;;;;;;;;;;;;;;;29.83;31.05;94189.56;5040633;28;9155;-57
2023/06/07 01:10:43;;;;;;;;;;;;;;;29.82;29.89;94179.75;5057186;28;9114;-57
2023/06/07 01:13:22;;;;;;;;;;;;;;;29.82;30.54;94181.81;5042603;28;9028;-57
2023/06/07 01:15:49;;;;;;;;;;;;;;;29.83;30.67;94186.03;5022563;28;7023;-56
2023/06/07 01:18:24;;;;;;;;;;;;;;;29.81;30.07;94183.81;5057914;28;7318;-56
2023/06/07 01:20:56;;;;;;;;;;;;;;;29.81;30.92;94183.81;5026017;28;7285;-56
2023/06/07 01:23:41;;;;;;;;;;;;;;;29.78;30.13;94179.34;5065928;28;6750;-54
2023/06/07 01:26:10;;;;;;;;;;;;;;;29.77;30.91;94188.97;5056748;28;7090;-54
2023/06/07 01:29:12;;;;;;;;;;;;;;;29.79;30.32;94186.41;5043785;28;9124;-54
2023/06/07 01:31:49;;;;;;;;;;;;;;;29.77;31.31;94184.19;5055384;28;7218;-54
2023/06/07 01:34:37;;;;;;;;;;;;;;;29.78;30.35;94184.91;5045342;28;7053;-54
2023/06/07 01:37:12;;;;;;;;;;;;;;;29.79;30.31;94183.63;5041118;28;9637;-54
2023/06/07 01:39:52;;;;;;;;;;;;;;;29.81;30.68;94183.81;5040268;28;7267;-54
2023/06/07 01:42:21;;;;;;;;;;;;;;;29.79;30.54;94181.59;5055274;28;7288;-54
2023/06/07 01:45:04;;;;;;;;;;;;;;;29.77;30.73;94181.41;5050512;28;9640;-54
2023/06/07 01:47:33;;;;;;;;;;;;;;;29.77;30.37;94177.88;5044342;28;8987;-54
2023/06/07 01:50:05;;;;;;;;;;;;;;;29.74;30.63;94182.47;5040392;28;7198;-54
2023/06/07 01:52:38;;;;;;;;;;;;;;;29.75;30.63;94180.47;5047998;28;9167;-54
2023/06/07 01:55:06;;;;;;;;;;;;;;;29.74;31.07;94185.25;5061467;28;7686;-54
2023/06/07 01:58:06;;;;;;;;;;;;;;;29.74;31.12;94174.16;5040423;28;7254;-54
2023/06/07 02:00:42;;;;;;;;;;;;;;;29.75;30.58;94174.91;5016090;28;7426;-54
2023/06/07 02:03:59;;;;;;;;;;;;;;;29.74;30.67;94179.72;4998984;28;6841;-54
2023/06/07 02:06:36;;;;;;;;;;;;;;;29.73;30.74;94180.22;4949620;28;9874;-54
2023/06/07 02:09:18;;;;;;;;;;;;;;;29.71;30.38;94180.03;4949834;28;7466;-54
2023/06/07 02:12:01;;;;;;;;;;;;;;;29.70;30.86;94173.75;4946620;29;7268;-54
2023/06/07 02:14:42;;;;;;;;;;;;;;;29.68;30.64;94164.47;4940964;28;7027;-54
2023/06/07 02:17:19;;;;;;;;;;;;;;;29.68;31.02;94165.22;4932269;28;7035;-56
2023/06/07 02:19:47;;;;;;;;;;;;;;;29.68;30.81;94172.78;4946751;28;9051;-56
2023/06/07 02:22:17;;;;;;;;;;;;;;;29.67;30.67;94174.81;4946976;28;7119;-56
2023/06/07 02:24:58;;;;;;;;;;;;;;;29.66;31.60;94167.81;4931263;28;7050;-56
2023/06/07 02:27:58;;;;;;;;;;;;;;;29.68;30.85;94172.78;4945170;29;7032;-56
2023/06/07 02:30:27;;;;;;;;;;;;;;;29.65;30.94;94162.78;4881390;29;9174;-56
2023/06/07 02:33:25;;;;;;;;;;;;;;;29.66;30.71;94167.06;4894374;29;7257;-56
2023/06/07 02:36:06;;;;;;;;;;;;;;;29.65;31.16;94168.31;4835540;29;9080;-56
2023/06/07 02:38:36;;;;;;;;;;;;;;;29.64;31.68;94166.84;4848427;29;7126;-56
2023/06/07 02:41:05;;;;;;;;;;;;;;;29.64;31.05;94164.09;4849367;29;7342;-55
2023/06/07 02:43:33;;;;;;;;;;;;;;;29.65;31.49;94169.06;4875689;29;7150;-55
2023/06/07 02:46:06;;;;;;;;;;;;;;;29.63;30.98;94168.88;4876320;29;7705;-56
2023/06/07 02:49:05;;;;;;;;;;;;;;;29.61;31.65;94171.44;4877716;29;7267;-56
2023/06/07 02:51:40;;;;;;;;;;;;;;;29.61;31.34;94170.69;4877638;29;7511;-56
2023/06/07 02:54:08;;;;;;;;;;;;;;;29.60;31.14;94172.72;4877027;29;9350;-56
2023/06/07 02:56:45;;;;;;;;;;;;;;;29.62;30.61;94177.75;4875278;29;8998;-56
2023/06/07 02:59:12;;;;;;;;;;;;;;;29.60;31.55;94174.78;4859088;29;7268;-56
2023/06/07 03:01:39;;;;;;;;;;;;;;;29.61;31.17;94181.78;4841668;29;7226;-56
2023/06/07 03:04:10;;;;;;;;;;;;;;;29.60;31.18;94178.25;4856944;29;7299;-56
2023/06/07 03:06:40;;;;;;;;;;;;;;;29.55;30.96;94179.16;4872763;28;7602;-56
2023/06/07 03:09:09;;;;;;;;;;;;;;;29.58;31.60;94186.38;4926940;28;7638;-56
2023/06/07 03:11:36;;;;;;;;;;;;;;;29.59;31.09;94179.56;4939814;28;8777;-56
2023/06/07 03:14:20;;;;;;;;;;;;;;;29.61;31.79;94181.78;4999499;28;7015;-55
2023/06/07 03:16:57;;;;;;;;;;;;;;;29.59;31.12;94178.81;4989814;28;7037;-55
2023/06/07 03:19:24;;;;;;;;;;;;;;;29.57;30.64;94171.06;4995329;28;7205;-55
2023/06/07 03:22:11;;;;;;;;;;;;;;;29.57;31.14;94173.81;5005066;28;9180;-55
2023/06/07 03:24:38;;;;;;;;;;;;;;;29.57;31.83;94175.84;4994009;28;8840;-55
2023/06/07 03:27:06;;;;;;;;;;;;;;;29.56;31.50;94169.56;4985101;28;7268;-55
2023/06/07 03:29:32;;;;;;;;;;;;;;;29.55;31.59;94170.09;5001377;28;8010;-55
2023/06/07 03:32:29;;;;;;;;;;;;;;;29.56;31.43;94168.81;5009296;28;8415;-56
2023/06/07 03:34:58;;;;;;;;;;;;;;;29.55;31.38;94175.66;5017559;28;7263;-55
2023/06/07 03:37:30;;;;;;;;;;;;;;;29.56;31.59;94180.63;5017993;28;7050;-56
2023/06/07 03:39:59;;;;;;;;;;;;;;;29.55;31.90;94181.94;5004862;28;7046;-56
2023/06/07 03:42:36;;;;;;;;;;;;;;;29.56;31.68;94183.41;5008958;28;7219;-56
2023/06/07 03:45:32;;;;;;;;;;;;;;;29.55;31.24;94181.94;5002514;28;9042;-56
2023/06/07 03:48:16;;;;;;;;;;;;;;;29.56;31.89;94185.44;5013886;28;7277;-56
2023/06/07 03:51:17;;;;;;;;;;;;;;;29.55;31.73;94183.97;5002724;28;7027;-56
2023/06/07 03:53:56;;;;;;;;;;;;;;;29.54;30.85;94183.22;5018645;28;9207;-56
2023/06/07 03:56:23;;;;;;;;;;;;;;;29.53;31.82;94187.28;4988109;28;7069;-55
2023/06/07 03:59:07;;;;;;;;;;;;;;;29.54;31.15;94188.00;5021017;28;8817;-56
2023/06/07 04:01:33;;;;;;;;;;;;;;;29.53;31.50;94192.81;5015773;28;9733;-56
2023/06/07 04:04:01;;;;;;;;;;;;;;;29.51;31.13;94195.41;4984486;28;7257;-56
2023/06/07 04:06:30;;;;;;;;;;;;;;;29.50;31.53;94195.91;5015127;28;7323;-56
2023/06/07 04:09:02;;;;;;;;;;;;;;;29.50;30.84;94204.22;4998748;28;7055;-56
2023/06/07 04:11:31;;;;;;;;;;;;;;;29.51;31.95;94202.97;4981720;28;7340;-56
2023/06/07 04:14:01;;;;;;;;;;;;;;;29.51;31.32;94200.19;5001451;28;6860;-56
2023/06/07 04:16:29;;;;;;;;;;;;;;;29.50;31.25;94198.69;5003718;28;9388;-55
2023/06/07 04:19:05;;;;;;;;;;;;;;;29.51;31.62;94194.66;5002773;28;9043;-57
2023/06/07 04:21:34;;;;;;;;;;;;;;;29.50;31.71;94199.44;5001594;28;7310;-56
2023/06/07 04:24:04;;;;;;;;;;;;;;;29.49;31.37;94195.16;5017795;28;8287;-56
2023/06/07 04:26:32;;;;;;;;;;;;;;;29.51;31.17;94208.50;5005574;28;8651;-56
2023/06/07 04:29:00;;;;;;;;;;;;;;;29.51;31.83;94208.50;5012774;28;9168;-56
2023/06/07 04:31:29;;;;;;;;;;;;;;;29.49;32.00;94202.75;5004236;28;7005;-56
2023/06/07 04:34:01;;;;;;;;;;;;;;;29.48;31.67;94195.72;5012729;28;7273;-56
2023/06/07 04:36:30;;;;;;;;;;;;;;;29.49;31.19;94194.44;5012016;28;7234;-56
2023/06/07 04:38:56;;;;;;;;;;;;;;;29.50;31.86;94195.91;5022875;28;9349;-56
2023/06/07 04:41:30;;;;;;;;;;;;;;;29.49;31.40;94200.72;5002064;28;7088;-56
2023/06/07 04:44:05;;;;;;;;;;;;;;;29.48;31.64;94201.25;5000732;28;9033;-56
2023/06/07 04:46:32;;;;;;;;;;;;;;;29.49;31.03;94202.75;5014510;28;6985;-56
2023/06/07 04:48:58;;;;;;;;;;;;;;;29.47;31.90;94194.25;5003572;28;7177;-56
2023/06/07 04:51:25;;;;;;;;;;;;;;;29.47;31.67;94202.56;4997798;28;7280;-56
2023/06/07 04:54:00;;;;;;;;;;;;;;;29.47;31.92;94191.47;5004304;28;9053;-56
2023/06/07 04:56:30;;;;;;;;;;;;;;;29.47;31.68;94199.78;5003068;28;9400;-56
2023/06/07 04:58:56;;;;;;;;;;;;;;;29.48;31.82;94202.00;4999400;28;8744;-55
2023/06/07 05:01:24;;;;;;;;;;;;;;;29.48;31.95;94193.69;5003473;28;7238;-56
2023/06/07 05:04:00;;;;;;;;;;;;;;;29.49;31.77;94191.69;5013418;28;8729;-56
2023/06/07 05:06:28;;;;;;;;;;;;;;;29.45;32.69;94188.50;5012293;28;8831;-56
2023/06/07 05:08:55;;;;;;;;;;;;;;;29.46;32.31;94187.97;4996299;28;8955;-56
2023/06/07 05:11:21;;;;;;;;;;;;;;;29.47;31.90;94186.66;5002290;28;8216;-57
2023/06/07 05:13:47;;;;;;;;;;;;;;;29.48;31.76;94184.63;5004165;28;9185;-57
2023/06/07 05:16:17;;;;;;;;;;;;;;;29.49;31.68;94186.13;5002682;28;8890;-57
2023/06/07 05:18:48;;;;;;;;;;;;;;;29.47;31.80;94189.44;4998503;28;9125;-57
2023/06/07 05:21:15;;;;;;;;;;;;;;;29.45;31.91;94186.47;5001783;28;7745;-57
2023/06/07 05:23:41;;;;;;;;;;;;;;;29.41;31.43;94188.06;4996534;28;7011;-56
2023/06/07 05:26:14;;;;;;;;;;;;;;;29.43;31.95;94196.59;5002060;28;8999;-57
2023/06/07 05:28:46;;;;;;;;;;;;;;;29.46;32.68;94192.75;5001258;28;7018;-57
2023/06/07 05:31:14;;;;;;;;;;;;;;;29.45;32.33;94191.28;4999715;28;9458;-57
2023/06/07 05:33:40;;;;;;;;;;;;;;;29.48;32.07;94187.41;5012371;28;9373;-57
2023/06/07 05:36:06;;;;;;;;;;;;;;;29.48;31.90;94195.72;5012101;28;7579;-57
2023/06/07 05:38:35;;;;;;;;;;;;;;;29.48;32.39;94201.25;4997614;28;9200;-57
2023/06/07 05:41:05;;;;;;;;;;;;;;;29.49;32.16;94197.22;5018118;28;7646;-57
2023/06/07 05:43:33;;;;;;;;;;;;;;;29.47;32.54;94194.97;5006340;28;9790;-57
2023/06/07 05:46:02;;;;;;;;;;;;;;;29.45;32.45;94197.53;5001576;28;9334;-57
2023/06/07 05:48:30;;;;;;;;;;;;;;;29.44;32.05;94198.09;5005666;28;8760;-57
2023/06/07 05:50:57;;;;;;;;;;;;;;;29.45;32.25;94202.38;5005573;28;7174;-57
2023/06/07 05:53:23;;;;;;;;;;;;;;;29.45;32.24;94196.81;5016419;28;8675;-57
2023/06/07 05:55:56;;;;;;;;;;;;;;;29.43;32.23;94188.28;5015225;28;9098;-57
2023/06/07 05:58:31;;;;;;;;;;;;;;;29.43;32.60;94202.13;5005046;28;7165;-57
2023/06/07 06:01:05;;;;;;;;;;;;;;;29.43;32.73;94196.59;5007047;28;7185;-57
2023/06/07 06:03:32;;;;;;;;;;;;;;;29.44;32.59;94204.38;5022359;28;7874;-57
2023/06/07 06:06:33;;;;;;;;;;;;;;;29.46;32.29;94209.38;5005032;28;9038;-57
2023/06/07 06:09:04;;;;;;;;;;;;;;;29.46;33.03;94209.38;4988538;28;8808;-57
2023/06/07 06:11:51;;;;;;;;;;;;;;;29.46;31.94;94207.34;4993037;28;7249;-57
2023/06/07 06:14:17;;;;;;;;;;;;;;;29.45;32.39;94213.44;4976900;28;7120;-57
2023/06/07 06:16:44;;;;;;;;;;;;;;;29.44;32.44;94218.25;4976059;28;7228;-57
2023/06/07 06:19:12;;;;;;;;;;;;;;;29.47;32.56;94217.13;4978383;28;7023;-57
2023/06/07 06:22:02;;;;;;;;;;;;;;;29.45;32.71;94213.44;4974095;28;7361;-57
2023/06/07 06:24:28;;;;;;;;;;;;;;;29.44;32.75;94215.47;4992383;28;7247;-57
2023/06/07 06:27:03;;;;;;;;;;;;;;;29.46;32.69;94217.69;4994003;28;7173;-57
2023/06/07 06:29:41;;;;;;;;;;;;;;;29.45;32.62;94211.41;4993162;28;9035;-57
2023/06/07 06:32:18;;;;;;;;;;;;;;;29.41;32.69;94213.78;4995556;28;7597;-57
2023/06/07 06:35:16;;;;;;;;;;;;;;;29.44;32.38;94214.72;4973870;28;9747;-57
2023/06/07 06:37:55;;;;;;;;;;;;;;;29.45;32.45;94219.00;4953055;28;7711;-56
2023/06/07 06:40:29;;;;;;;;;;;;;;;29.43;32.82;94222.28;4954879;28;7025;-56
2023/06/07 06:43:12;;;;;;;;;;;;;;;29.42;32.96;94215.28;4972570;28;7213;-56
2023/06/07 06:45:40;;;;;;;;;;;;;;;29.45;32.79;94219.72;4967253;28;9035;-56
2023/06/07 06:48:16;;;;;;;;;;;;;;;29.46;33.34;94215.66;4952525;28;7279;-56
2023/06/07 06:51:11;;;;;;;;;;;;;;;29.48;33.37;94217.88;4971635;28;7242;-56
2023/06/07 06:53:39;;;;;;;;;;;;;;;29.48;33.01;94217.88;4946327;28;7009;-56
2023/06/07 06:56:21;;;;;;;;;;;;;;;29.50;32.77;94215.31;4934512;28;9131;-56
2023/06/07 06:58:49;;;;;;;;;;;;;;;29.50;33.08;94220.88;4953274;28;7147;-56
2023/06/07 07:01:54;;;;;;;;;;;;;;;29.51;33.22;94225.88;4935904;28;8741;-56
2023/06/07 07:04:29;;;;;;;;;;;;;;;29.50;32.42;94229.94;4914212;29;9652;-56
2023/06/07 07:06:55;;;;;;;;;;;;;;;29.50;32.92;94226.41;4897758;29;7060;-56
2023/06/07 07:09:28;;;;;;;;;;;;;;;29.50;33.47;94220.88;4914746;29;7026;-57
2023/06/07 07:12:21;;;;;;;;;;;;;;;29.50;32.41;94229.94;4900037;29;7358;-56
2023/06/07 07:14:59;;;;;;;;;;;;;;;29.48;33.31;94223.44;4891811;29;8927;-56
2023/06/07 07:17:46;;;;;;;;;;;;;;;29.51;32.41;94230.69;4909694;29;8802;-56
2023/06/07 07:20:22;;;;;;;;;;;;;;;29.50;33.21;94227.16;4911876;29;7308;-56
2023/06/07 07:22:48;;;;;;;;;;;;;;;29.51;32.69;94228.66;4913486;29;9261;-56
2023/06/07 07:25:16;;;;;;;;;;;;;;;29.51;33.04;94227.91;4911063;29;7287;-56
2023/06/07 07:27:43;;;;;;;;;;;;;;;29.51;32.73;94230.69;4894795;29;8507;-56
2023/06/07 07:30:12;;;;;;;;;;;;;;;29.54;33.37;94232.34;4925171;28;8240;-56
2023/06/07 07:32:58;;;;;;;;;;;;;;;29.54;32.39;94226.81;4933569;28;7341;-56
2023/06/07 07:35:24;;;;;;;;;;;;;;;29.53;33.13;94225.34;4933054;29;7044;-56
2023/06/07 07:37:53;;;;;;;;;;;;;;;29.56;32.59;94229.78;4957920;28;7284;-56
2023/06/07 07:40:30;;;;;;;;;;;;;;;29.55;33.36;94225.53;5005564;28;7399;-56
2023/06/07 07:43:11;;;;;;;;;;;;;;;29.54;33.37;94224.78;5011502;28;7030;-56
2023/06/07 07:45:46;;;;;;;;;;;;;;;29.55;33.68;94228.31;5012330;28;7320;-56
2023/06/07 07:48:32;;;;;;;;;;;;;;;29.56;32.77;94213.16;5006584;28;7026;-56
2023/06/07 07:50:59;;;;;;;;;;;;;;;29.56;32.97;94222.22;5009587;28;7533;-56
2023/06/07 07:53:26;;;;;;;;;;;;;;;29.56;32.72;94227.75;5009563;28;7354;-56
2023/06/07 07:55:59;;;;;;;;;;;;;;;29.55;33.54;94226.28;5010721;28;8589;-56
2023/06/07 07:58:50;;;;;;;;;;;;;;;29.59;33.79;94226.69;5008715;28;7123;-56
2023/06/07 08:01:18;;;;;;;;;;;;;;;29.58;33.51;94227.97;5007162;28;7221;-56
2023/06/07 08:04:01;;;;;;;;;;;;;;;29.57;33.78;94220.94;5020525;28;7044;-56
2023/06/07 08:06:29;;;;;;;;;;;;;;;29.59;33.30;94226.69;5010804;28;7088;-56
2023/06/07 08:08:59;;;;;;;;;;;;;;;29.61;33.58;94223.38;5023424;28;7061;-56
2023/06/07 08:11:59;;;;;;;;;;;;;;;29.60;34.47;94224.66;5019604;28;7030;-56
2023/06/07 08:14:42;;;;;;;;;;;;;;;29.59;34.51;94223.16;5010008;28;7125;-56
2023/06/07 08:17:24;;;;;;;;;;;;;;;29.58;34.62;94221.69;5012631;28;7022;-56
2023/06/07 08:19:55;;;;;;;;;;;;;;;29.61;34.69;94224.13;5026033;28;8690;-56
2023/06/07 08:22:53;;;;;;;;;;;;;;;29.55;34.98;94220.00;5010320;28;7112;-56
2023/06/07 08:25:35;;;;;;;;;;;;;;;29.52;35.56;94221.81;4986233;28;7294;-56
2023/06/07 08:28:02;;;;;;;;;;;;;;;29.53;34.62;94217.03;4983279;28;9081;-56
2023/06/07 08:30:31;;;;;;;;;;;;;;;29.55;34.68;94222.75;5000437;28;7409;-56
2023/06/07 08:33:33;;;;;;;;;;;;;;;29.56;35.08;94213.16;4977823;28;7084;-56
2023/06/07 08:36:04;;;;;;;;;;;;;;;29.52;34.79;94201.66;4955856;28;8956;-55
2023/06/07 08:38:41;;;;;;;;;;;;;;;29.59;34.75;94217.63;4976768;28;7595;-56
2023/06/07 08:41:28;;;;;;;;;;;;;;;29.60;35.37;94214.28;4970681;28;7211;-56
2023/06/07 08:44:07;;;;;;;;;;;;;;;29.62;36.34;94208.22;4973638;28;7047;-55
2023/06/07 08:46:50;;;;;;;;;;;;;;;29.65;35.01;94212.69;4971976;28;7100;-55
2023/06/07 08:49:35;;;;;;;;;;;;;;;29.65;35.49;94213.44;4954831;28;7204;-56
2023/06/07 08:52:21;;;;;;;;;;;;;;;29.65;34.46;94218.22;4977254;28;9163;-55
2023/06/07 08:55:03;;;;;;;;;;;;;;;29.65;34.82;94213.44;4976190;28;9331;-56
2023/06/07 08:57:31;;;;;;;;;;;;;;;29.66;34.56;94211.41;4968453;28;9058;-56
2023/06/07 09:00:00;;;;;;;;;;;;;;;29.65;35.08;94215.44;4974090;28;7095;-56
2023/06/07 09:02:26;;;;;;;;;;;;;;;29.66;34.22;94211.41;4966293;28;7258;-56
2023/06/07 09:05:30;;;;;;;;;;;;;;;29.67;34.91;94215.66;4952745;28;7404;-56
2023/06/07 09:07:59;;;;;;;;;;;;;;;29.69;34.68;94213.81;4954061;28;7064;-56
2023/06/07 09:10:36;;;;;;;;;;;;;;;29.70;34.55;94222.88;4998690;28;8728;-56
2023/06/07 09:13:19;;;;;;;;;;;;;;;29.70;35.42;94214.56;5016039;28;9060;-56
2023/06/07 09:15:49;;;;;;;;;;;;;;;29.70;35.13;94218.09;5005197;28;9511;-56
2023/06/07 09:18:15;;;;;;;;;;;;;;;29.70;34.72;94215.31;5007113;28;9020;-56
2023/06/07 09:20:44;;;;;;;;;;;;;;;29.70;35.36;94212.56;4998499;28;7055;-56
2023/06/07 09:23:14;;;;;;;;;;;;;;;29.72;35.26;94218.28;4999827;28;9237;-56
2023/06/07 09:25:53;;;;;;;;;;;;;;;29.72;34.61;94214.78;5021802;28;7113;-56
2023/06/07 09:28:22;;;;;;;;;;;;;;;29.70;35.18;94206.25;5017543;28;8135;-56
2023/06/07 09:31:30;;;;;;;;;;;;;;;29.68;34.84;94215.13;5000029;28;7001;-56
2023/06/07 09:34:31;;;;;;;;;;;;;;;29.68;35.16;94214.38;4955693;28;7031;-56
2023/06/07 09:36:59;;;;;;;;;;;;;;;29.65;35.04;94212.69;4953561;28;7442;-56
2023/06/07 09:39:32;;;;;;;;;;;;;;;29.62;34.86;94211.72;4971461;28;7374;-56
2023/06/07 09:42:26;;;;;;;;;;;;;;;29.65;35.52;94216.19;4955048;28;9186;-56
2023/06/07 09:45:18;;;;;;;;;;;;;;;29.64;35.69;94217.50;4974030;28;7023;-56
2023/06/07 09:48:04;;;;;;;;;;;;;;;29.66;35.00;94219.72;4949282;28;6861;-56
2023/06/07 09:50:31;;;;;;;;;;;;;;;29.65;35.65;94221.00;4953024;28;7271;-56
2023/06/07 09:53:47;;;;;;;;;;;;;;;29.67;36.04;94219.16;4960370;28;7072;-56
2023/06/07 09:56:27;;;;;;;;;;;;;;;29.67;34.98;94210.84;4975159;28;9356;-56
2023/06/07 09:59:13;;;;;;;;;;;;;;;29.70;34.94;94211.81;4959246;28;7255;-56
2023/06/07 10:01:46;;;;;;;;;;;;;;;29.69;35.14;94201.97;4968934;28;7249;-56
2023/06/07 10:04:22;;;;;;;;;;;;;;;29.69;35.50;94202.72;4970909;28;7413;-56
2023/06/07 10:06:52;;;;;;;;;;;;;;;29.70;36.11;94206.25;4959153;28;7277;-56
2023/06/07 10:09:20;;;;;;;;;;;;;;;29.70;35.42;94207.00;4988516;28;7194;-56
2023/06/07 10:12:21;;;;;;;;;;;;;;;29.70;35.58;94206.25;5008022;28;9017;-56
2023/06/07 10:15:11;;;;;;;;;;;;;;;29.72;35.09;94201.66;5011518;28;7253;-56
2023/06/07 10:18:05;;;;;;;;;;;;;;;29.74;34.62;94195.59;4996591;28;9010;-56
2023/06/07 10:21:03;;;;;;;;;;;;;;;29.74;35.16;94198.38;5011979;28;7018;-56
2023/06/07 10:23:41;;;;;;;;;;;;;;;29.73;35.93;94200.34;5004282;28;7172;-56
2023/06/07 10:26:35;;;;;;;;;;;;;;;29.75;34.77;94197.09;5012097;28;9172;-56
2023/06/07 10:29:25;;;;;;;;;;;;;;;29.75;35.14;94205.41;4995001;28;7271;-56
2023/06/07 10:32:06;;;;;;;;;;;;;;;29.75;35.43;94205.41;5011258;28;7463;-56
2023/06/07 10:34:32;;;;;;;;;;;;;;;29.74;35.42;94190.78;5012645;28;7040;-56
2023/06/07 10:37:00;;;;;;;;;;;;;;;29.76;34.98;94198.56;5012440;28;7171;-56
2023/06/07 10:39:45;;;;;;;;;;;;;;;29.76;35.41;94190.25;4996351;28;7294;-56
2023/06/07 10:42:24;;;;;;;;;;;;;;;29.76;35.41;94190.25;5011858;28;9347;-56
2023/06/07 10:45:15;;;;;;;;;;;;;;;29.83;34.78;94195.09;5010336;28;9339;-56
2023/06/07 10:48:35;;;;;;;;;;;;;;;29.95;34.75;94193.53;5009522;28;7257;-56
2023/06/07 10:51:51;;;;;;;;;;;;;;;30.13;34.89;94183.47;5012795;28;8879;-56
2023/06/07 10:54:49;;;;;;;;;;;;;;;30.15;34.39;94184.41;5025814;28;7471;-56
2023/06/07 10:57:37;;;;;;;;;;;;;;;30.13;35.22;94184.22;5026689;28;7914;-57
2023/06/07 11:00:43;;;;;;;;;;;;;;;30.11;34.49;94177.72;5021472;28;7079;-56
2023/06/07 11:03:12;;;;;;;;;;;;;;;30.10;34.53;94176.97;5010819;28;7378;-56
2023/06/07 11:06:01;;;;;;;;;;;;;;;30.07;34.73;94178.06;5020049;28;8896;-56
2023/06/07 11:08:40;;;;;;;;;;;;;;;30.06;34.26;94179.34;5011298;28;7435;-56
2023/06/07 11:11:42;;;;;;;;;;;;;;;30.05;35.30;94182.69;5012871;28;7258;-56
2023/06/07 11:14:18;;;;;;;;;;;;;;;30.02;34.38;94167.88;5027132;28;7082;-56
2023/06/07 11:16:57;;;;;;;;;;;;;;;30.01;34.34;94160.84;5013631;28;7004;-56
2023/06/07 11:19:49;;;;;;;;;;;;;;;30.02;34.46;94167.13;5011879;28;8748;-56
2023/06/07 11:22:26;;;;;;;;;;;;;;;30.00;34.97;94164.91;5022525;28;7343;-56
2023/06/07 11:25:13;;;;;;;;;;;;;;;30.02;35.19;94158.81;5004930;28;6981;-56
2023/06/07 11:27:53;;;;;;;;;;;;;;;30.05;34.88;94161.25;5009974;28;8633;-56
2023/06/07 11:30:36;;;;;;;;;;;;;;;30.09;34.17;94158.84;5026216;28;6989;-56
2023/06/07 11:33:04;;;;;;;;;;;;;;;30.12;34.82;94157.78;5010239;28;7242;-56
2023/06/07 11:35:30;;;;;;;;;;;;;;;30.15;33.87;94161.47;5012147;28;7298;-57
2023/06/07 11:38:27;;;;;;;;;;;;;;;30.18;34.41;94155.59;5007245;28;7276;-56
2023/06/07 11:40:56;;;;;;;;;;;;;;;30.18;34.91;94147.25;5009737;28;6982;-56
2023/06/07 11:43:31;;;;;;;;;;;;;;;30.20;34.42;94152.25;5020562;28;7077;-56
2023/06/07 11:46:05;;;;;;;;;;;;;;;30.21;34.41;94160.03;5026493;28;7289;-57
2023/06/07 11:48:46;;;;;;;;;;;;;;;30.21;33.86;94146.16;5004904;28;8989;-56
2023/06/07 11:51:31;;;;;;;;;;;;;;;30.24;34.18;94152.63;5004754;28;9375;-56
2023/06/07 11:53:58;;;;;;;;;;;;;;;30.26;33.39;94142.47;5004267;28;7224;-56
2023/06/07 11:56:36;;;;;;;;;;;;;;;30.24;33.53;94142.28;5024344;28;7817;-57
2023/06/07 11:59:04;;;;;;;;;;;;;;;30.29;33.23;94141.41;5007873;28;7289;-56
2023/06/07 12:01:31;;;;;;;;;;;;;;;30.29;33.46;94138.63;5006841;28;9274;-56
2023/06/07 12:04:00;;;;;;;;;;;;;;;30.30;33.85;94134.53;4999247;28;7048;-56
2023/06/07 12:06:26;;;;;;;;;;;;;;;30.30;33.63;94131.03;5022722;28;9303;-56
2023/06/07 12:08:55;;;;;;;;;;;;;;;30.31;34.09;94127.75;5006068;28;7112;-56
2023/06/07 12:11:25;;;;;;;;;;;;;;;30.33;33.95;94119.59;5008555;28;7047;-56
2023/06/07 12:13:59;;;;;;;;;;;;;;;30.31;33.24;94121.44;5008292;28;7132;-56
2023/06/07 12:16:27;;;;;;;;;;;;;;;30.36;33.89;94123.31;5007227;28;7213;-56
2023/06/07 12:19:18;;;;;;;;;;;;;;;30.36;34.16;94124.03;5025576;28;9071;-56
2023/06/07 12:22:16;;;;;;;;;;;;;;;30.37;34.22;94111.66;5009477;28;9184;-56
2023/06/07 12:24:54;;;;;;;;;;;;;;;30.38;32.88;94123.50;4983931;28;9103;-56
2023/06/07 12:27:34;;;;;;;;;;;;;;;30.38;33.51;94109.63;4984656;28;8969;-56
2023/06/07 12:30:02;;;;;;;;;;;;;;;30.38;33.81;94113.13;4975210;28;9002;-56
2023/06/07 12:32:41;;;;;;;;;;;;;;;30.34;32.77;94100.94;4966802;28;7037;-56
2023/06/07 12:35:10;;;;;;;;;;;;;;;30.38;32.82;94099.25;4987980;28;7266;-56
2023/06/07 12:37:46;;;;;;;;;;;;;;;30.40;32.80;94104.28;4972783;28;7073;-57
2023/06/07 12:40:22;;;;;;;;;;;;;;;30.39;33.58;94097.22;4985525;28;7185;-56
2023/06/07 12:43:03;;;;;;;;;;;;;;;30.40;33.55;94099.47;4974181;28;7278;-56
2023/06/07 12:45:29;;;;;;;;;;;;;;;30.42;33.19;94091.34;4973474;28;7119;-57
2023/06/07 12:47:55;;;;;;;;;;;;;;;30.42;32.74;94094.13;4988587;28;9292;-56
2023/06/07 12:50:52;;;;;;;;;;;;;;;30.42;33.61;94096.16;4972244;28;7101;-56
2023/06/07 12:53:52;;;;;;;;;;;;;;;30.43;32.97;94097.63;4913421;29;9530;-57
2023/06/07 12:56:50;;;;;;;;;;;;;;;30.42;33.16;94091.34;4910769;29;7615;-57
2023/06/07 12:59:29;;;;;;;;;;;;;;;30.44;33.12;94088.75;4929382;29;9084;-57
2023/06/07 13:01:55;;;;;;;;;;;;;;;30.45;32.59;94081.16;4938770;28;7068;-57
2023/06/07 13:04:23;;;;;;;;;;;;;;;30.44;33.31;94085.97;4944463;28;7362;-57
2023/06/07 13:07:01;;;;;;;;;;;;;;;30.45;32.65;94083.91;4933779;28;7066;-57
2023/06/07 13:09:40;;;;;;;;;;;;;;;30.47;32.21;94073.75;4933619;28;6860;-57
2023/06/07 13:12:07;;;;;;;;;;;;;;;30.48;32.76;94082.84;4943599;28;7015;-57
2023/06/07 13:14:49;;;;;;;;;;;;;;;30.47;33.30;94073.75;4943116;28;8723;-57
2023/06/07 13:17:40;;;;;;;;;;;;;;;30.48;32.18;94071.72;4942861;28;7256;-57
2023/06/07 13:20:16;;;;;;;;;;;;;;;30.49;33.04;94081.56;4946473;28;9109;-57
2023/06/07 13:22:42;;;;;;;;;;;;;;;30.50;32.39;94067.13;4941187;29;7300;-55
2023/06/07 13:25:09;;;;;;;;;;;;;;;30.52;32.38;94072.09;4943402;29;8748;-56
2023/06/07 13:28:02;;;;;;;;;;;;;;;30.51;32.92;94063.03;4945912;29;7028;-56
2023/06/07 13:30:31;;;;;;;;;;;;;;;30.47;33.94;94065.44;5003669;28;7243;-56
2023/06/07 13:32:58;;;;;;;;;;;;;;;30.49;33.85;94073.94;5003873;28;8554;-56
2023/06/07 13:35:50;;;;;;;;;;;;;;;30.47;33.39;94070.97;5007401;28;8362;-56
2023/06/07 13:38:32;;;;;;;;;;;;;;;30.46;33.01;94060.44;5010924;28;8741;-56
2023/06/07 13:41:08;;;;;;;;;;;;;;;30.47;33.51;94057.09;5008361;28;7128;-56
2023/06/07 13:43:38;;;;;;;;;;;;;;;30.46;33.14;94052.88;5010144;28;9057;-56
2023/06/07 13:46:06;;;;;;;;;;;;;;;30.49;33.61;94051.75;5006310;28;7101;-56
2023/06/07 13:49:07;;;;;;;;;;;;;;;30.49;33.94;94046.19;4994633;28;7374;-57